Churchdown, United Kingdom
Current Conditions -  °F | °C
As of 6:48 AM on Sunday 26 Oct 2014 (Local Time) from EGVA Reporting Station
Overcast Overcast  
Wind Chill: 12°   Ceiling: 2900
Heat Index: 12°   Visibility: 6mi
Dew Point:   Wind: 13mph
Humidity: 72%   Direction: 230°SW
Pressure: 30.1"   Gusts: 24mph
Location:  51.89°N, 2.18°W
Report Text: EGVA 260548Z AUTO 23011G21KT 9999 OVC029 12/07 A3010 RMK AO2
Loading
Personal Weather Stations






























Interactive Weather Map
Tropical Storm Tracking
New forecast layout! Learn more

10-Day Weather Forecast

Advertisements
Track Severe Weather on mobile